Time;durP1;ratioP1;P1;durP2;ratioP2;P2;SDS_P1;SDS_P2;PMS_P1;PMS_P2;Temp;Humidity;BMP_temperature;BMP_pressure;BME280_temperature;BME280_humidity;BME280_pressure;Samples;Min_cycle;Max_cycle;Signal;HPM_P1;HPM_P2
2022/10/14 00:00:32;;;;;;;;;;;;;;;13.85;67.75;100850.69;5337354;32;886476;-78
2022/10/14 00:03:34;;;;;;;;;;;;;;;13.78;68.12;100854.50;5331047;32;36395;-78
2022/10/14 00:06:36;;;;;;;;;;;;;;;13.60;68.45;100842.16;5335453;32;34719;-72
2022/10/14 00:09:40;;;;;;;;;;;;;;;13.43;68.96;100840.22;5353863;32;35158;-80
2022/10/14 00:12:42;;;;;;;;;;;;;;;14.19;65.86;100836.78;5340761;32;37255;-79
2022/10/14 00:15:44;;;;;;;;;;;;;;;14.02;66.16;100847.25;5363064;32;34139;-81
2022/10/14 00:18:46;;;;;;;;;;;;;;;14.28;64.74;100838.97;5343464;32;35290;-71
2022/10/14 00:21:48;;;;;;;;;;;;;;;13.79;67.42;100843.03;5352229;32;34118;-78
2022/10/14 00:24:50;;;;;;;;;;;;;;;14.00;65.62;100841.19;5322064;32;34197;-71
2022/10/14 00:27:51;;;;;;;;;;;;;;;13.75;66.67;100837.03;5345716;32;35708;-72
2022/10/14 00:30:57;;;;;;;;;;;;;;;14.10;66.16;100834.53;5336964;32;35518;-78
2022/10/14 00:33:59;;;;;;;;;;;;;;;14.00;65.96;100827.97;5324244;32;43103;-78
2022/10/14 00:37:01;;;;;;;;;;;;;;;13.97;66.45;100833.37;5343292;32;34198;-71
2022/10/14 00:40:04;;;;;;;;;;;;;;;13.78;67.17;100834.25;5343638;32;35167;-79
2022/10/14 00:43:08;;;;;;;;;;;;;;;13.92;66.47;100828.34;5365870;32;35897;-77
2022/10/14 00:46:10;;;;;;;;;;;;;;;14.01;66.08;100827.06;5343057;32;34631;-71
2022/10/14 00:49:12;;;;;;;;;;;;;;;13.42;68.01;100833.25;5332344;32;34668;-71
2022/10/14 00:52:18;;;;;;;;;;;;;;;13.50;68.61;100831.97;5351824;32;35203;-76
2022/10/14 00:55:20;;;;;;;;;;;;;;;12.90;70.87;100831.00;5328645;32;35063;-73
2022/10/14 00:58:22;;;;;;;;;;;;;;;12.11;75.46;100839.47;5357181;32;33097;-78
2022/10/14 01:01:24;;;;;;;;;;;;;;;12.13;76.00;100827.94;5342463;32;35844;-79
2022/10/14 01:04:26;;;;;;;;;;;;;;;12.34;75.50;100831.50;5344312;32;43481;-72
2022/10/14 01:07:27;;;;;;;;;;;;;;;12.68;73.21;100822.25;5340795;32;34833;-71
2022/10/14 01:10:30;;;;;;;;;;;;;;;12.99;71.42;100825.34;5344860;32;34256;-71
2022/10/14 01:13:36;;;;;;;;;;;;;;;13.26;69.07;100814.56;5342639;32;34548;-77
2022/10/14 01:16:38;;;;;;;;;;;;;;;12.89;71.21;100828.44;5341235;32;35637;-78
2022/10/14 01:20:18;;;;;;;;;;;;;;;13.23;70.10;100823.47;5357912;32;35283;-72
2022/10/14 01:23:29;;;;;;;;;;;;;;;13.58;68.85;100820.19;5313415;32;35166;-79
2022/10/14 01:26:33;;;;;;;;;;;;;;;13.02;69.93;100819.94;5313083;32;44749;-78
2022/10/14 01:29:38;;;;;;;;;;;;;;;13.48;68.65;100818.00;5358680;32;34484;-79
2022/10/14 01:32:51;;;;;;;;;;;;;;;12.44;73.36;100827.63;5336709;32;34866;-70
2022/10/14 01:36:03;;;;;;;;;;;;;;;12.90;71.93;100820.47;5358497;32;34224;-71
2022/10/14 01:39:08;;;;;;;;;;;;;;;12.86;72.20;100808.31;5342925;32;43314;-76
2022/10/14 01:42:11;;;;;;;;;;;;;;;12.48;72.62;100823.91;5331204;32;35323;-79
2022/10/14 01:45:15;;;;;;;;;;;;;;;12.19;74.33;100822.44;5352387;32;35348;-79
2022/10/14 01:48:17;;;;;;;;;;;;;;;12.20;74.71;100813.63;5316586;32;34347;-78
2022/10/14 01:51:24;;;;;;;;;;;;;;;11.98;76.22;100811.84;5356135;32;34276;-71
2022/10/14 01:54:29;;;;;;;;;;;;;;;11.67;77.62;100805.09;5329992;32;44169;-78
2022/10/14 01:57:32;;;;;;;;;;;;;;;12.17;75.27;100802.31;5357197;32;35229;-72
2022/10/14 02:00:34;;;;;;;;;;;;;;;12.30;74.56;100803.59;5341530;32;34347;-73
2022/10/14 02:03:43;;;;;;;;;;;;;;;12.99;71.41;100798.09;5338591;32;34976;-79
2022/10/14 02:06:47;;;;;;;;;;;;;;;13.10;69.63;100801.16;5358938;32;35044;-72
2022/10/14 02:10:15;;;;;;;;;;;;;;;13.59;67.32;100804.31;5340897;32;34390;-79
2022/10/14 02:13:35;;;;;;;;;;;;;;;12.40;73.82;100809.34;5337103;32;35334;-79
2022/10/14 02:16:37;;;;;;;;;;;;;;;12.66;70.76;100800.38;5347526;32;35446;-80
2022/10/14 02:19:45;;;;;;;;;;;;;;;13.37;69.07;100799.09;5341881;32;35431;-72
2022/10/14 02:22:48;;;;;;;;;;;;;;;11.82;75.56;100801.06;5353493;32;34107;-78
2022/10/14 02:25:50;;;;;;;;;;;;;;;11.63;76.97;100806.09;5303904;32;34497;-71
2022/10/14 02:28:52;;;;;;;;;;;;;;;11.47;77.75;100800.56;5343909;32;34702;-71
2022/10/14 02:31:54;;;;;;;;;;;;;;;11.38;79.19;100804.34;5336413;32;35788;-78
2022/10/14 02:34:56;;;;;;;;;;;;;;;12.15;76.05;100801.53;5337773;32;44286;-72
2022/10/14 02:37:58;;;;;;;;;;;;;;;11.22;79.55;100804.97;5342660;32;35179;-71
2022/10/14 02:41:00;;;;;;;;;;;;;;;11.66;78.13;100804.22;5340629;32;35130;-79
2022/10/14 02:44:04;;;;;;;;;;;;;;;12.11;76.11;100805.22;5355303;32;35150;-78
2022/10/14 02:47:05;;;;;;;;;;;;;;;12.06;76.16;100800.13;5329545;32;37040;-72
2022/10/14 02:50:08;;;;;;;;;;;;;;;12.19;74.10;100800.50;5357921;32;34807;-77
2022/10/14 02:53:10;;;;;;;;;;;;;;;12.56;72.02;100799.91;5327020;32;34562;-72
2022/10/14 02:56:12;;;;;;;;;;;;;;;13.39;69.17;100794.62;5335838;32;34156;-72
2022/10/14 02:59:14;;;;;;;;;;;;;;;12.76;71.75;100801.72;5336894;32;35617;-79
2022/10/14 03:02:16;;;;;;;;;;;;;;;12.95;70.28;100793.91;5339147;32;35519;-72
2022/10/14 03:05:18;;;;;;;;;;;;;;;13.01;70.53;100797.13;5354351;32;34602;-79
2022/10/14 03:08:20;;;;;;;;;;;;;;;12.60;72.77;100796.19;5327377;32;34756;-71
2022/10/14 03:11:22;;;;;;;;;;;;;;;12.56;72.94;100802.53;5341780;32;34357;-71
2022/10/14 03:14:23;;;;;;;;;;;;;;;12.61;72.03;100791.78;5329732;32;35393;-78
2022/10/14 03:17:25;;;;;;;;;;;;;;;11.89;76.33;100798.12;5348532;32;43768;-77
2022/10/14 03:20:27;;;;;;;;;;;;;;;11.85;76.64;100801.81;5336493;32;36181;-78
2022/10/14 03:23:29;;;;;;;;;;;;;;;12.49;74.63;100806.31;5314953;32;35114;-78
2022/10/14 03:26:31;;;;;;;;;;;;;;;12.08;75.26;100803.53;5343585;32;33941;-72
2022/10/14 03:29:33;;;;;;;;;;;;;;;11.83;77.40;100808.03;5340571;32;35420;-78
2022/10/14 03:32:34;;;;;;;;;;;;;;;12.18;75.84;100798.78;5335761;32;35010;-78
2022/10/14 03:35:36;;;;;;;;;;;;;;;12.11;75.88;100795.53;5340358;32;35519;-78
2022/10/14 03:38:38;;;;;;;;;;;;;;;12.08;75.87;100787.75;5348427;32;34795;-71
2022/10/14 03:41:41;;;;;;;;;;;;;;;11.89;77.06;100795.50;5352139;32;35495;-71
2022/10/14 03:44:43;;;;;;;;;;;;;;;12.29;76.82;100795.72;5339251;32;34375;-79
2022/10/14 03:47:45;;;;;;;;;;;;;;;12.90;73.30;100791.44;5354808;32;34195;-78
2022/10/14 03:50:47;;;;;;;;;;;;;;;13.58;69.00;100783.22;5342657;32;34691;-78
2022/10/14 03:53:49;;;;;;;;;;;;;;;12.52;73.69;100793.03;5353957;32;37082;-79
2022/10/14 03:56:50;;;;;;;;;;;;;;;12.64;73.96;100786.41;5340649;32;35511;-71
2022/10/14 03:59:52;;;;;;;;;;;;;;;12.99;70.79;100788.41;5344847;32;34253;-71
2022/10/14 04:02:54;;;;;;;;;;;;;;;12.03;75.11;100781.78;5332428;32;35417;-70
2022/10/14 04:05:56;;;;;;;;;;;;;;;12.39;75.43;100787.38;5340546;32;44427;-78
2022/10/14 04:08:58;;;;;;;;;;;;;;;12.72;73.63;100768.47;5357339;32;34441;-70
2022/10/14 04:12:00;;;;;;;;;;;;;;;13.50;69.28;100771.22;5343117;32;36215;-71
2022/10/14 04:15:02;;;;;;;;;;;;;;;13.54;68.07;100767.53;5356553;32;35262;-79
2022/10/14 04:18:04;;;;;;;;;;;;;;;13.73;68.04;100769.34;5342768;32;35036;-77
2022/10/14 04:21:06;;;;;;;;;;;;;;;13.64;68.45;100761.81;5350011;32;35724;-71
2022/10/14 04:24:08;;;;;;;;;;;;;;;13.04;71.57;100763.59;5331227;32;33832;-72
2022/10/14 04:27:10;;;;;;;;;;;;;;;13.74;67.94;100765.78;5337241;32;34845;-70
2022/10/14 04:30:12;;;;;;;;;;;;;;;13.90;66.68;100766.75;5358110;32;34825;-80
2022/10/14 04:33:14;;;;;;;;;;;;;;;13.17;69.03;100762.16;5326792;32;34402;-77
2022/10/14 04:36:16;;;;;;;;;;;;;;;12.04;74.47;100775.59;5342732;32;35442;-78
2022/10/14 04:39:18;;;;;;;;;;;;;;;12.40;74.77;100772.44;5344057;32;34767;-72
2022/10/14 04:42:19;;;;;;;;;;;;;;;12.41;74.26;100761.81;5345975;32;34875;-78
2022/10/14 04:45:22;;;;;;;;;;;;;;;12.27;74.91;100761.53;5354359;32;35531;-79
2022/10/14 04:48:24;;;;;;;;;;;;;;;13.30;70.37;100760.72;5346982;32;34346;-78
2022/10/14 04:51:26;;;;;;;;;;;;;;;13.65;68.38;100758.25;5356534;32;43195;-72
2022/10/14 04:54:28;;;;;;;;;;;;;;;12.79;71.71;100759.37;5342114;32;34297;-80
2022/10/14 04:57:29;;;;;;;;;;;;;;;12.46;73.46;100762.50;5354476;32;35418;-72
2022/10/14 05:00:31;;;;;;;;;;;;;;;13.34;70.27;100770.22;5330547;32;34752;-71
2022/10/14 05:03:33;;;;;;;;;;;;;;;12.91;71.25;100781.75;5334177;32;35381;-79
2022/10/14 05:06:36;;;;;;;;;;;;;;;12.54;73.63;100769.22;5350228;32;34748;-71
2022/10/14 05:09:38;;;;;;;;;;;;;;;13.21;70.85;100763.78;5330440;32;34658;-71
2022/10/14 05:12:40;;;;;;;;;;;;;;;13.44;69.06;100766.22;5337660;32;34826;-72
2022/10/14 05:15:42;;;;;;;;;;;;;;;13.26;70.13;100769.69;5342958;32;33608;-72
2022/10/14 05:18:45;;;;;;;;;;;;;;;12.53;73.38;100776.28;5356292;32;34519;-80
2022/10/14 05:21:47;;;;;;;;;;;;;;;12.49;74.68;100772.03;5339373;32;32827;-80
2022/10/14 05:24:49;;;;;;;;;;;;;;;12.79;73.42;100767.28;5325795;32;34157;-79
2022/10/14 05:27:52;;;;;;;;;;;;;;;13.84;67.56;100761.75;5354255;32;35500;-72
2022/10/14 05:30:54;;;;;;;;;;;;;;;13.72;68.02;100770.28;5344487;32;35888;-78
2022/10/14 05:33:56;;;;;;;;;;;;;;;13.65;67.91;100784.66;5338506;32;45393;-71
2022/10/14 05:36:58;;;;;;;;;;;;;;;13.48;69.00;100781.03;5342195;32;35085;-71
2022/10/14 05:40:00;;;;;;;;;;;;;;;13.26;70.59;100794.28;5365699;32;35986;-79
2022/10/14 05:43:02;;;;;;;;;;;;;;;11.85;76.25;100793.91;5327901;32;34116;-72
2022/10/14 05:46:04;;;;;;;;;;;;;;;12.35;76.34;100793.69;5338276;32;34395;-77
2022/10/14 05:49:06;;;;;;;;;;;;;;;13.31;73.32;100785.31;5358614;32;35274;-71
2022/10/14 05:52:08;;;;;;;;;;;;;;;14.15;68.03;100777.03;5325732;32;35657;-71
2022/10/14 05:55:10;;;;;;;;;;;;;;;13.91;67.68;100779.06;5356582;32;35436;-76
2022/10/14 05:58:12;;;;;;;;;;;;;;;12.79;73.20;100791.03;5338999;32;35447;-70
2022/10/14 06:01:14;;;;;;;;;;;;;;;13.80;69.78;100792.75;5346891;32;35472;-76
2022/10/14 06:04:17;;;;;;;;;;;;;;;13.72;69.84;100794.06;5337591;32;35358;-71
2022/10/14 06:07:19;;;;;;;;;;;;;;;13.95;68.58;100800.91;5322968;32;34979;-71
2022/10/14 06:10:21;;;;;;;;;;;;;;;13.84;69.17;100801.38;5351862;32;34926;-81
2022/10/14 06:13:24;;;;;;;;;;;;;;;15.16;63.57;100791.41;5326939;32;34295;-66
2022/10/14 06:16:25;;;;;;;;;;;;;;;15.41;62.96;100804.25;5351749;32;36922;-80
2022/10/14 06:19:27;;;;;;;;;;;;;;;15.12;64.30;100805.75;5335319;32;34076;-81
2022/10/14 06:22:29;;;;;;;;;;;;;;;15.33;63.13;100798.50;5337531;32;37330;-70
2022/10/14 06:25:31;;;;;;;;;;;;;;;15.21;63.32;100803.59;5313892;32;36082;-75
2022/10/14 06:28:33;;;;;;;;;;;;;;;15.66;61.94;100805.63;5330009;32;35677;-70
2022/10/14 06:31:35;;;;;;;;;;;;;;;14.92;64.76;100805.06;5345305;32;34386;-70
2022/10/14 06:34:37;;;;;;;;;;;;;;;15.39;62.04;100808.78;5340676;32;35605;-67
2022/10/14 06:37:39;;;;;;;;;;;;;;;15.65;61.56;100810.09;5353577;32;34354;-82
2022/10/14 06:40:41;;;;;;;;;;;;;;;15.28;62.50;100802.31;5348048;32;34350;-70
2022/10/14 06:43:43;;;;;;;;;;;;;;;15.52;61.20;100806.34;5330465;32;34187;-71
2022/10/14 06:46:45;;;;;;;;;;;;;;;15.86;60.75;100804.56;5342624;32;36376;-76
2022/10/14 06:49:47;;;;;;;;;;;;;;;15.64;61.23;100812.78;5344840;32;34215;-86
2022/10/14 06:52:49;;;;;;;;;;;;;;;15.75;61.06;100805.12;5346333;32;34946;-76
2022/10/14 06:56:01;;;;;;;;;;;;;;;15.82;60.00;100819.75;5334434;32;34288;-75
2022/10/14 06:59:04;;;;;;;;;;;;;;;16.05;59.83;100818.53;5354129;32;43567;-75
2022/10/14 07:02:09;;;;;;;;;;;;;;;16.17;60.41;100817.00;5338092;32;34628;-75
2022/10/14 07:05:11;;;;;;;;;;;;;;;16.82;58.10;100808.91;5353107;32;35417;-75
2022/10/14 07:08:13;;;;;;;;;;;;;;;18.30;53.14;100810.44;5329619;32;34315;-74
2022/10/14 07:11:16;;;;;;;;;;;;;;;16.71;57.77;100812.19;5343339;32;34428;-76
2022/10/14 07:14:19;;;;;;;;;;;;;;;18.41;52.54;100813.25;5351587;32;35965;-78
2022/10/14 07:17:21;;;;;;;;;;;;;;;18.72;51.75;100817.44;5342308;32;34298;-79
2022/10/14 07:20:23;;;;;;;;;;;;;;;19.19;50.46;100810.72;5356613;32;34690;-84
2022/10/14 07:23:25;;;;;;;;;;;;;;;17.42;54.80;100812.34;5333072;32;34335;-78
2022/10/14 07:26:30;;;;;;;;;;;;;;;18.22;53.58;100804.72;5324126;32;44510;-75
2022/10/14 07:29:32;;;;;;;;;;;;;;;19.35;50.13;100799.87;5336911;32;34759;-72
2022/10/14 07:32:35;;;;;;;;;;;;;;;19.15;48.53;100785.25;5335704;32;34413;-73
2022/10/14 07:35:38;;;;;;;;;;;;;;;18.94;50.20;100796.44;5351572;32;34159;-72
2022/10/14 07:38:40;;;;;;;;;;;;;;;17.79;53.19;100807.47;5345812;32;35406;-74
2022/10/14 07:41:42;;;;;;;;;;;;;;;18.03;52.53;100813.03;5354645;32;35054;-79
2022/10/14 07:44:44;;;;;;;;;;;;;;;16.79;57.10;100808.12;5349211;32;35288;-72
2022/10/14 07:47:47;;;;;;;;;;;;;;;17.78;53.37;100809.28;5345392;32;37249;-76
2022/10/14 07:50:49;;;;;;;;;;;;;;;16.00;59.35;100817.91;5327633;32;34063;-75
2022/10/14 07:53:52;;;;;;;;;;;;;;;16.38;58.67;100812.28;5338258;32;34136;-75
2022/10/14 07:56:56;;;;;;;;;;;;;;;15.88;60.50;100813.28;5362357;32;33894;-76
2022/10/14 07:59:58;;;;;;;;;;;;;;;16.82;57.34;100803.59;5343044;32;45777;-73
2022/10/14 08:03:00;;;;;;;;;;;;;;;16.93;57.80;100794.03;5349398;32;35791;-75
2022/10/14 08:06:03;;;;;;;;;;;;;;;18.13;52.58;100792.87;5318745;32;34144;-74
2022/10/14 08:09:06;;;;;;;;;;;;;;;16.85;56.34;100788.34;5347577;32;34317;-77
2022/10/14 08:12:11;;;;;;;;;;;;;;;18.32;52.09;100785.44;5347785;32;33386;-77
2022/10/14 08:15:14;;;;;;;;;;;;;;;18.40;51.31;100785.78;5336401;32;34374;-72
2022/10/14 08:18:16;;;;;;;;;;;;;;;17.75;53.38;100792.66;5357441;32;35910;-72
2022/10/14 08:21:18;;;;;;;;;;;;;;;17.15;55.62;100783.00;5330449;32;34124;-70
2022/10/14 08:24:20;;;;;;;;;;;;;;;16.45;57.07;100795.06;5339464;32;35712;-71
2022/10/14 08:27:25;;;;;;;;;;;;;;;16.67;56.69;100784.06;5337870;32;36061;-69
2022/10/14 08:30:27;;;;;;;;;;;;;;;17.02;55.56;100784.69;5342880;32;44631;-68
2022/10/14 08:33:29;;;;;;;;;;;;;;;16.20;58.11;100783.19;5351199;32;34374;-73
2022/10/14 08:36:31;;;;;;;;;;;;;;;17.57;54.56;100778.66;5342130;32;34312;-80
2022/10/14 08:39:33;;;;;;;;;;;;;;;18.72;50.63;100766.84;5349090;32;35513;-81
2022/10/14 08:42:50;;;;;;;;;;;;;;;17.08;54.13;100770.19;5338998;32;34193;-74
2022/10/14 08:45:54;;;;;;;;;;;;;;;17.70;52.72;100768.97;5350172;32;34334;-80
2022/10/14 08:49:15;;;;;;;;;;;;;;;18.20;51.74;100764.94;5333426;32;44504;-70
2022/10/14 08:52:37;;;;;;;;;;;;;;;18.12;51.43;100760.13;5336022;32;34604;-72
2022/10/14 08:55:49;;;;;;;;;;;;;;;18.86;48.93;100761.44;5354579;32;34206;-73
2022/10/14 08:58:53;;;;;;;;;;;;;;;19.39;47.25;100761.41;5331609;32;35438;-70
2022/10/14 09:02:03;;;;;;;;;;;;;;;19.48;47.09;100764.25;5335704;32;34407;-67
2022/10/14 09:05:05;;;;;;;;;;;;;;;18.78;48.95;100766.44;5347714;32;47029;-70
2022/10/14 09:08:09;;;;;;;;;;;;;;;18.86;49.04;100766.78;5332948;32;36573;-71
2022/10/14 09:11:12;;;;;;;;;;;;;;;18.85;49.04;100761.56;5353180;32;34341;-70
2022/10/14 09:14:18;;;;;;;;;;;;;;;18.52;50.36;100762.81;5342010;32;35409;-83
2022/10/14 09:17:22;;;;;;;;;;;;;;;18.32;51.10;100765.94;5348969;32;34198;-67
2022/10/14 09:20:25;;;;;;;;;;;;;;;19.38;48.12;100762.34;5329446;32;35286;-71
2022/10/14 09:23:27;;;;;;;;;;;;;;;18.56;50.50;100764.34;5317149;32;48228;-70
2022/10/14 09:26:35;;;;;;;;;;;;;;;19.22;48.89;100765.22;5328072;32;34320;-70
2022/10/14 09:29:40;;;;;;;;;;;;;;;18.97;50.18;100751.87;5338671;32;34336;-71
2022/10/14 09:32:47;;;;;;;;;;;;;;;20.31;46.49;100757.50;5325650;32;34191;-86
2022/10/14 09:35:49;;;;;;;;;;;;;;;18.74;50.60;100764.97;5319457;32;34274;-70
2022/10/14 09:38:52;;;;;;;;;;;;;;;19.80;47.78;100762.97;5355272;32;34131;-70
2022/10/14 09:41:54;;;;;;;;;;;;;;;19.81;47.83;100757.53;5330482;32;35460;-71
2022/10/14 09:45:07;;;;;;;;;;;;;;;19.84;48.49;100764.47;5353144;32;44754;-91
2022/10/14 09:48:11;;;;;;;;;;;;;;;19.43;49.41;100758.41;5354526;32;34635;-71
2022/10/14 09:51:21;;;;;;;;;;;;;;;19.41;49.44;100757.66;5332230;32;32406;-82
2022/10/14 09:54:24;;;;;;;;;;;;;;;19.40;49.85;100766.63;5341369;32;35535;-80
2022/10/14 09:57:25;;;;;;;;;;;;;;;20.09;48.82;100756.38;5326630;32;35360;-78
2022/10/14 10:00:27;;;;;;;;;;;;;;;22.58;42.55;100744.06;5346559;32;36115;-78
2022/10/14 10:03:34;;;;;;;;;;;;;;;22.36;42.81;100743.19;5346921;32;34802;-70
2022/10/14 10:06:36;;;;;;;;;;;;;;;25.01;37.27;100726.00;5341339;32;35543;-69
2022/10/14 10:09:38;;;;;;;;;;;;;;;25.47;36.43;100731.53;5354549;32;34457;-68
2022/10/14 10:12:45;;;;;;;;;;;;;;;26.30;33.91;100741.31;5342483;32;34138;-77
2022/10/14 10:15:59;;;;;;;;;;;;;;;26.13;34.61;100742.97;5348284;32;34072;-68
2022/10/14 10:19:20;;;;;;;;;;;;;;;29.00;29.75;100728.13;5333538;32;44508;-71
2022/10/14 10:22:23;;;;;;;;;;;;;;;26.12;34.17;100732.34;5343293;32;34404;-68
2022/10/14 10:25:26;;;;;;;;;;;;;;;27.57;31.98;100722.09;5336402;32;34287;-68
2022/10/14 10:28:30;;;;;;;;;;;;;;;26.87;33.00;100722.97;5344088;32;45912;-72
2022/10/14 10:31:33;;;;;;;;;;;;;;;26.96;32.74;100715.78;5354774;32;34382;-69
2022/10/14 10:34:56;;;;;;;;;;;;;;;24.25;37.37;100720.47;5328498;32;34284;-71
2022/10/14 10:38:05;;;;;;;;;;;;;;;22.46;41.85;100721.00;5342921;32;44871;-70
2022/10/14 10:41:14;;;;;;;;;;;;;;;22.11;42.89;100722.94;5355931;32;34667;-73
2022/10/14 10:44:18;;;;;;;;;;;;;;;22.24;42.42;100712.06;5348324;32;33914;-70
2022/10/14 10:47:30;;;;;;;;;;;;;;;22.14;43.15;100711.97;5355171;32;34327;-73
2022/10/14 10:50:48;;;;;;;;;;;;;;;22.55;42.16;100705.03;5329203;32;46501;-69
2022/10/14 10:53:50;;;;;;;;;;;;;;;21.85;43.75;100708.13;5353299;32;32352;-70
2022/10/14 10:56:53;;;;;;;;;;;;;;;21.18;44.81;100710.78;5355502;32;34477;-76
2022/10/14 11:00:07;;;;;;;;;;;;;;;22.14;42.61;100698.59;5327089;32;37524;-91
2022/10/14 11:03:14;;;;;;;;;;;;;;;22.04;42.50;100704.81;5346675;32;34252;-72
2022/10/14 11:12:01;;;;;;;;;;;;;;;21.83;43.40;100697.56;5329952;32;34395;-69
2022/10/14 11:13:28;;;;;;;;;;;;;;;22.03;42.68;100692.41;5357905;32;34972;-79
2022/10/14 11:16:43;;;;;;;;;;;;;;;22.07;42.31;100681.31;5329267;32;44708;-72
2022/10/14 11:20:04;;;;;;;;;;;;;;;21.35;43.74;100687.16;5338292;32;34375;-78
2022/10/14 11:23:25;;;;;;;;;;;;;;;22.33;41.20;100684.53;5340341;32;34414;-77
2022/10/14 11:26:49;;;;;;;;;;;;;;;23.34;39.45;100677.72;5329483;32;43307;-75
2022/10/14 11:29:55;;;;;;;;;;;;;;;24.78;36.44;100666.31;5333031;32;35908;-76
2022/10/14 11:33:00;;;;;;;;;;;;;;;22.36;41.23;100675.41;5329590;32;44576;-77
2022/10/14 11:36:05;;;;;;;;;;;;;;;22.40;40.49;100666.97;5339859;32;34297;-77
2022/10/14 11:39:17;;;;;;;;;;;;;;;22.04;40.44;100665.50;5352523;32;35380;-72
2022/10/14 11:42:25;;;;;;;;;;;;;;;22.33;40.14;100657.75;5341028;32;34194;-76
2022/10/14 11:45:29;;;;;;;;;;;;;;;22.89;39.08;100660.16;5355093;32;44514;-77
2022/10/14 11:48:31;;;;;;;;;;;;;;;22.59;39.42;100652.00;5342924;32;36164;-74
2022/10/14 11:51:41;;;;;;;;;;;;;;;23.77;37.72;100654.16;5356397;32;35360;-74
2022/10/14 11:54:44;;;;;;;;;;;;;;;23.59;38.37;100649.56;5356450;32;35456;-74
2022/10/14 11:57:52;;;;;;;;;;;;;;;22.43;40.28;100653.34;5328646;32;35193;-76
2022/10/14 12:00:54;;;;;;;;;;;;;;;21.53;42.84;100649.22;5356710;32;34427;-73
2022/10/14 12:03:58;;;;;;;;;;;;;;;21.85;42.48;100650.13;5344219;32;44430;-73
2022/10/14 12:07:04;;;;;;;;;;;;;;;22.49;40.63;100651.97;5358357;32;34723;-78
2022/10/14 12:10:15;;;;;;;;;;;;;;;22.29;41.09;100636.75;5329894;32;34345;-79
2022/10/14 12:13:17;;;;;;;;;;;;;;;22.14;41.77;100642.38;5342833;32;34997;-76
2022/10/14 12:16:20;;;;;;;;;;;;;;;22.23;41.43;100638.09;5344494;32;34729;-77
2022/10/14 12:19:25;;;;;;;;;;;;;;;23.68;38.45;100638.88;5345021;32;34711;-74
2022/10/14 12:22:28;;;;;;;;;;;;;;;23.75;38.15;100634.66;5345342;32;44634;-77
2022/10/14 12:25:32;;;;;;;;;;;;;;;23.62;39.14;100635.91;5306330;32;34313;-74
2022/10/14 12:28:34;;;;;;;;;;;;;;;22.82;40.81;100637.50;5355841;32;35340;-73
2022/10/14 12:31:37;;;;;;;;;;;;;;;22.36;42.17;100624.53;5334280;32;34934;-79
2022/10/14 12:34:39;;;;;;;;;;;;;;;22.80;41.19;100626.09;5349084;32;35052;-73
2022/10/14 12:37:48;;;;;;;;;;;;;;;22.84;41.09;100623.97;5356028;32;34536;-75
2022/10/14 12:40:51;;;;;;;;;;;;;;;22.17;42.68;100620.72;5344368;32;35265;-76
2022/10/14 12:44:02;;;;;;;;;;;;;;;24.03;38.75;100610.69;5362734;32;34769;-72
2022/10/14 12:47:04;;;;;;;;;;;;;;;22.89;40.83;100608.38;5330034;32;45060;-77
2022/10/14 12:50:26;;;;;;;;;;;;;;;22.66;41.08;100616.53;5334527;32;35544;-74
2022/10/14 12:53:28;;;;;;;;;;;;;;;23.95;39.00;100599.78;5360954;32;46751;-73
2022/10/14 12:56:35;;;;;;;;;;;;;;;23.30;40.77;100607.41;5331819;32;34604;-77
2022/10/14 12:59:37;;;;;;;;;;;;;;;25.24;36.54;100599.25;5347889;32;34799;-77
2022/10/14 13:02:44;;;;;;;;;;;;;;;25.75;35.41;100597.84;5344078;32;34779;-78
2022/10/14 13:05:46;;;;;;;;;;;;;;;24.40;37.92;100600.06;5339647;32;34266;-73
2022/10/14 13:09:07;;;;;;;;;;;;;;;24.56;37.92;100602.16;5355396;32;34620;-76
2022/10/14 13:12:11;;;;;;;;;;;;;;;25.66;35.00;100602.28;5345040;32;35440;-76
2022/10/14 13:15:45;;;;;;;;;;;;;;;25.41;34.80;100594.91;5361497;32;34281;-73
2022/10/14 13:18:49;;;;;;;;;;;;;;;25.76;34.61;100586.94;5307073;32;33836;-77
2022/10/14 13:21:51;;;;;;;;;;;;;;;26.46;33.44;100585.19;5349204;32;34245;-73
2022/10/14 13:25:10;;;;;;;;;;;;;;;27.09;32.10;100580.50;5315998;32;36138;-73
2022/10/14 13:28:14;;;;;;;;;;;;;;;28.53;29.88;100569.28;5332357;32;35131;-77
2022/10/14 13:31:21;;;;;;;;;;;;;;;29.58;28.19;100569.94;5341571;32;34527;-74
2022/10/14 13:34:26;;;;;;;;;;;;;;;29.39;28.67;100576.59;5326446;32;34267;-74
2022/10/14 13:37:35;;;;;;;;;;;;;;;29.70;27.93;100572.22;5355021;32;45130;-78
2022/10/14 13:40:37;;;;;;;;;;;;;;;29.97;27.61;100570.84;5350011;32;36653;-77
2022/10/14 13:43:41;;;;;;;;;;;;;;;31.81;24.64;100572.66;5329737;32;34257;-74
2022/10/14 13:46:44;;;;;;;;;;;;;;;30.68;25.79;100573.09;5345280;32;35302;-72
2022/10/14 13:49:45;;;;;;;;;;;;;;;27.77;30.22;100567.75;5332407;32;35110;-76
2022/10/14 13:52:57;;;;;;;;;;;;;;;28.51;29.17;100570.47;5356555;32;35767;-77
2022/10/14 13:55:59;;;;;;;;;;;;;;;27.92;30.36;100573.34;5327362;32;44859;-73
2022/10/14 13:59:01;;;;;;;;;;;;;;;25.86;33.65;100574.22;5345693;32;35597;-76
2022/10/14 14:02:19;;;;;;;;;;;;;;;24.25;37.11;100569.25;5345661;32;34092;-78
2022/10/14 14:05:22;;;;;;;;;;;;;;;24.01;37.69;100572.37;5328335;32;34437;-78
2022/10/14 14:08:28;;;;;;;;;;;;;;;23.96;37.89;100563.91;5358324;32;34288;-73
2022/10/14 14:11:41;;;;;;;;;;;;;;;23.06;39.61;100558.66;5329206;32;34768;-77
2022/10/14 14:14:44;;;;;;;;;;;;;;;22.53;41.04;100572.19;5337630;32;35647;-78
2022/10/14 14:17:46;;;;;;;;;;;;;;;22.66;40.41;100567.47;5341520;32;35044;-76
2022/10/14 14:20:56;;;;;;;;;;;;;;;22.62;40.84;100558.87;5346910;32;35223;-77
2022/10/14 14:23:59;;;;;;;;;;;;;;;21.84;42.90;100564.62;5340129;32;44607;-75
2022/10/14 14:27:01;;;;;;;;;;;;;;;22.02;42.80;100556.88;5320900;32;34707;-78
2022/10/14 14:30:07;;;;;;;;;;;;;;;22.51;41.49;100558.94;5344544;32;35470;-73
2022/10/14 14:33:16;;;;;;;;;;;;;;;21.18;45.04;100566.47;5336452;32;34778;-78
2022/10/14 14:36:18;;;;;;;;;;;;;;;21.16;45.24;100560.41;5328014;32;35626;-74
2022/10/14 14:39:28;;;;;;;;;;;;;;;22.36;41.73;100565.63;5344326;32;46173;-74
2022/10/14 14:42:39;;;;;;;;;;;;;;;22.09;42.77;100558.09;5341205;32;35359;-77
2022/10/14 14:45:42;;;;;;;;;;;;;;;21.84;43.07;100564.62;5345168;32;34664;-74
2022/10/14 14:48:45;;;;;;;;;;;;;;;22.16;42.50;100565.50;5328195;32;35724;-77
2022/10/14 14:51:54;;;;;;;;;;;;;;;22.07;42.38;100565.38;5329660;32;34782;-76
2022/10/14 14:54:55;;;;;;;;;;;;;;;22.53;40.44;100562.31;5338486;32;37729;-73
2022/10/14 14:57:57;;;;;;;;;;;;;;;22.44;41.06;100555.09;5328868;32;33963;-76
2022/10/14 15:00:59;;;;;;;;;;;;;;;21.58;43.52;100564.97;5343793;32;35048;-74
2022/10/14 15:04:07;;;;;;;;;;;;;;;21.79;43.34;100551.63;5326952;32;35188;-77
2022/10/14 15:07:16;;;;;;;;;;;;;;;21.57;44.09;100554.38;5343905;32;34048;-74
2022/10/14 15:10:24;;;;;;;;;;;;;;;21.85;43.70;100548.44;5329820;32;34821;-76
2022/10/14 15:13:27;;;;;;;;;;;;;;;21.62;44.52;100547.69;5328553;32;43420;-76
2022/10/14 15:16:41;;;;;;;;;;;;;;;21.55;44.61;100553.66;5343796;32;34716;-73
2022/10/14 15:19:42;;;;;;;;;;;;;;;22.25;42.95;100546.94;5339111;32;34878;-77
2022/10/14 15:22:45;;;;;;;;;;;;;;;22.49;41.58;100552.03;5358882;32;34753;-77
2022/10/14 15:25:55;;;;;;;;;;;;;;;22.17;42.34;100551.12;5318864;32;34186;-73
2022/10/14 15:29:03;;;;;;;;;;;;;;;21.73;43.66;100546.78;5348903;32;44776;-77
2022/10/14 15:32:15;;;;;;;;;;;;;;;21.70;43.97;100551.53;5351153;32;36731;-73
2022/10/14 15:35:18;;;;;;;;;;;;;;;21.69;44.24;100544.50;5326380;32;35281;-73
2022/10/14 15:38:19;;;;;;;;;;;;;;;21.58;45.09;100548.06;5358557;32;34901;-77
2022/10/14 15:41:21;;;;;;;;;;;;;;;21.96;44.41;100547.56;5327138;32;34746;-72
2022/10/14 15:44:23;;;;;;;;;;;;;;;21.89;44.57;100551.69;5343856;32;35116;-77
2022/10/14 15:47:27;;;;;;;;;;;;;;;21.47;45.66;100556.97;5326836;32;44777;-74
2022/10/14 15:50:29;;;;;;;;;;;;;;;20.96;47.16;100564.69;5342640;32;34375;-77